sensor_id;sensor_type;location;lat;lon;timestamp;P1;durP1;ratioP1;P2;durP2;ratioP2
29538;SDS011;16482;51.046;4.498;2023-07-31T00:00:07;9.50;;;5.35;;
29538;SDS011;16482;51.046;4.498;2023-07-31T00:02:34;8.82;;;5.55;;
29538;SDS011;16482;51.046;4.498;2023-07-31T00:05:00;8.63;;;5.38;;
29538;SDS011;16482;51.046;4.498;2023-07-31T00:07:26;8.50;;;5.22;;
29538;SDS011;16482;51.046;4.498;2023-07-31T00:09:52;10.00;;;5.25;;
29538;SDS011;16482;51.046;4.498;2023-07-31T00:12:19;9.77;;;5.53;;
29538;SDS011;16482;51.046;4.498;2023-07-31T00:14:45;8.68;;;5.32;;
29538;SDS011;16482;51.046;4.498;2023-07-31T00:17:11;8.98;;;5.63;;
29538;SDS011;16482;51.046;4.498;2023-07-31T00:19:37;8.90;;;5.75;;
29538;SDS011;16482;51.046;4.498;2023-07-31T00:22:03;10.35;;;5.63;;
29538;SDS011;16482;51.046;4.498;2023-07-31T00:24:30;8.77;;;5.28;;
29538;SDS011;16482;51.046;4.498;2023-07-31T00:26:55;9.95;;;5.60;;
29538;SDS011;16482;51.046;4.498;2023-07-31T00:29:21;9.25;;;5.20;;
29538;SDS011;16482;51.046;4.498;2023-07-31T00:31:47;10.23;;;5.50;;
29538;SDS011;16482;51.046;4.498;2023-07-31T00:34:13;9.82;;;5.32;;
29538;SDS011;16482;51.046;4.498;2023-07-31T00:36:39;10.13;;;5.63;;
29538;SDS011;16482;51.046;4.498;2023-07-31T00:39:05;10.68;;;5.25;;
29538;SDS011;16482;51.046;4.498;2023-07-31T00:41:31;9.55;;;6.32;;
29538;SDS011;16482;51.046;4.498;2023-07-31T00:43:57;9.73;;;5.65;;
29538;SDS011;16482;51.046;4.498;2023-07-31T00:46:23;9.63;;;5.60;;
29538;SDS011;16482;51.046;4.498;2023-07-31T00:48:49;11.25;;;5.90;;
29538;SDS011;16482;51.046;4.498;2023-07-31T00:51:15;9.95;;;5.75;;
29538;SDS011;16482;51.046;4.498;2023-07-31T00:53:41;9.10;;;5.65;;
29538;SDS011;16482;51.046;4.498;2023-07-31T00:56:09;9.25;;;5.68;;
29538;SDS011;16482;51.046;4.498;2023-07-31T00:58:36;9.70;;;5.85;;
29538;SDS011;16482;51.046;4.498;2023-07-31T01:01:02;9.77;;;5.32;;
29538;SDS011;16482;51.046;4.498;2023-07-31T01:03:27;9.60;;;5.70;;
29538;SDS011;16482;51.046;4.498;2023-07-31T01:09:04;10.43;;;5.47;;
29538;SDS011;16482;51.046;4.498;2023-07-31T01:11:48;13.13;;;5.85;;
29538;SDS011;16482;51.046;4.498;2023-07-31T01:14:25;11.23;;;6.00;;
29538;SDS011;16482;51.046;4.498;2023-07-31T01:16:54;9.43;;;5.90;;
29538;SDS011;16482;51.046;4.498;2023-07-31T01:19:23;12.52;;;6.18;;
29538;SDS011;16482;51.046;4.498;2023-07-31T01:24:48;11.25;;;6.03;;
29538;SDS011;16482;51.046;4.498;2023-07-31T01:27:14;11.27;;;5.88;;
29538;SDS011;16482;51.046;4.498;2023-07-31T01:29:47;9.98;;;5.68;;
29538;SDS011;16482;51.046;4.498;2023-07-31T01:32:18;10.25;;;6.13;;
29538;SDS011;16482;51.046;4.498;2023-07-31T01:34:46;12.13;;;6.53;;
29538;SDS011;16482;51.046;4.498;2023-07-31T01:37:12;9.55;;;5.88;;
29538;SDS011;16482;51.046;4.498;2023-07-31T01:39:38;10.52;;;5.78;;
29538;SDS011;16482;51.046;4.498;2023-07-31T01:42:04;10.68;;;6.15;;
29538;SDS011;16482;51.046;4.498;2023-07-31T01:44:30;10.98;;;5.55;;
29538;SDS011;16482;51.046;4.498;2023-07-31T01:46:57;10.75;;;5.80;;
29538;SDS011;16482;51.046;4.498;2023-07-31T01:49:25;10.27;;;5.88;;
29538;SDS011;16482;51.046;4.498;2023-07-31T01:51:53;10.00;;;5.50;;
29538;SDS011;16482;51.046;4.498;2023-07-31T01:54:22;9.00;;;5.80;;
29538;SDS011;16482;51.046;4.498;2023-07-31T01:56:53;10.48;;;5.65;;
29538;SDS011;16482;51.046;4.498;2023-07-31T01:59:21;9.95;;;5.65;;
29538;SDS011;16482;51.046;4.498;2023-07-31T02:01:47;9.75;;;5.97;;
29538;SDS011;16482;51.046;4.498;2023-07-31T02:04:13;10.07;;;5.90;;
29538;SDS011;16482;51.046;4.498;2023-07-31T02:06:39;11.15;;;6.43;;
29538;SDS011;16482;51.046;4.498;2023-07-31T02:09:05;10.55;;;6.13;;
29538;SDS011;16482;51.046;4.498;2023-07-31T02:11:31;9.23;;;5.60;;
29538;SDS011;16482;51.046;4.498;2023-07-31T02:13:58;11.48;;;6.13;;
29538;SDS011;16482;51.046;4.498;2023-07-31T02:16:24;10.52;;;5.88;;
29538;SDS011;16482;51.046;4.498;2023-07-31T02:18:49;9.75;;;5.28;;
29538;SDS011;16482;51.046;4.498;2023-07-31T02:21:15;11.15;;;6.32;;
29538;SDS011;16482;51.046;4.498;2023-07-31T02:23:41;11.32;;;6.43;;
29538;SDS011;16482;51.046;4.498;2023-07-31T02:26:07;10.77;;;5.93;;
29538;SDS011;16482;51.046;4.498;2023-07-31T02:28:33;11.07;;;6.18;;
29538;SDS011;16482;51.046;4.498;2023-07-31T02:31:02;10.27;;;6.32;;
29538;SDS011;16482;51.046;4.498;2023-07-31T02:33:28;7.78;;;5.53;;
29538;SDS011;16482;51.046;4.498;2023-07-31T02:35:54;10.82;;;5.80;;
29538;SDS011;16482;51.046;4.498;2023-07-31T02:38:20;10.10;;;5.90;;
29538;SDS011;16482;51.046;4.498;2023-07-31T02:40:46;9.95;;;5.70;;
29538;SDS011;16482;51.046;4.498;2023-07-31T02:43:13;8.75;;;5.38;;
29538;SDS011;16482;51.046;4.498;2023-07-31T02:45:39;10.30;;;5.68;;
29538;SDS011;16482;51.046;4.498;2023-07-31T02:48:05;10.10;;;5.50;;
29538;SDS011;16482;51.046;4.498;2023-07-31T02:50:30;9.55;;;5.78;;
29538;SDS011;16482;51.046;4.498;2023-07-31T02:52:57;9.77;;;5.85;;
29538;SDS011;16482;51.046;4.498;2023-07-31T02:55:23;8.75;;;5.45;;
29538;SDS011;16482;51.046;4.498;2023-07-31T02:57:49;10.57;;;5.57;;
29538;SDS011;16482;51.046;4.498;2023-07-31T03:00:15;11.45;;;6.60;;
29538;SDS011;16482;51.046;4.498;2023-07-31T03:02:44;9.43;;;5.57;;
29538;SDS011;16482;51.046;4.498;2023-07-31T03:05:12;9.88;;;6.13;;
29538;SDS011;16482;51.046;4.498;2023-07-31T03:07:43;11.70;;;6.22;;
29538;SDS011;16482;51.046;4.498;2023-07-31T03:10:09;9.43;;;5.82;;
29538;SDS011;16482;51.046;4.498;2023-07-31T03:12:37;10.77;;;6.18;;
29538;SDS011;16482;51.046;4.498;2023-07-31T03:15:03;10.10;;;6.43;;
29538;SDS011;16482;51.046;4.498;2023-07-31T03:17:29;10.88;;;6.13;;
29538;SDS011;16482;51.046;4.498;2023-07-31T03:19:55;9.40;;;6.10;;
29538;SDS011;16482;51.046;4.498;2023-07-31T03:22:21;10.25;;;6.05;;
29538;SDS011;16482;51.046;4.498;2023-07-31T03:24:47;11.98;;;5.88;;
29538;SDS011;16482;51.046;4.498;2023-07-31T03:27:13;13.15;;;6.15;;
29538;SDS011;16482;51.046;4.498;2023-07-31T03:29:39;11.07;;;6.35;;
29538;SDS011;16482;51.046;4.498;2023-07-31T03:32:05;11.00;;;6.43;;
29538;SDS011;16482;51.046;4.498;2023-07-31T03:34:31;10.07;;;5.80;;
29538;SDS011;16482;51.046;4.498;2023-07-31T03:36:57;12.95;;;6.72;;
29538;SDS011;16482;51.046;4.498;2023-07-31T03:39:23;9.27;;;5.93;;
29538;SDS011;16482;51.046;4.498;2023-07-31T03:41:49;11.88;;;6.32;;
29538;SDS011;16482;51.046;4.498;2023-07-31T03:44:15;9.18;;;6.30;;
29538;SDS011;16482;51.046;4.498;2023-07-31T03:46:41;8.93;;;6.03;;
29538;SDS011;16482;51.046;4.498;2023-07-31T03:49:07;11.02;;;6.38;;
29538;SDS011;16482;51.046;4.498;2023-07-31T03:51:33;8.77;;;5.57;;
29538;SDS011;16482;51.046;4.498;2023-07-31T03:53:59;9.57;;;6.10;;
29538;SDS011;16482;51.046;4.498;2023-07-31T03:56:25;10.30;;;6.47;;
29538;SDS011;16482;51.046;4.498;2023-07-31T03:58:51;9.45;;;5.97;;
29538;SDS011;16482;51.046;4.498;2023-07-31T04:01:19;10.48;;;6.55;;
29538;SDS011;16482;51.046;4.498;2023-07-31T04:03:45;9.98;;;5.68;;
29538;SDS011;16482;51.046;4.498;2023-07-31T04:06:11;10.40;;;6.10;;
29538;SDS011;16482;51.046;4.498;2023-07-31T04:08:37;10.82;;;5.93;;
29538;SDS011;16482;51.046;4.498;2023-07-31T04:11:03;10.63;;;5.50;;
29538;SDS011;16482;51.046;4.498;2023-07-31T04:13:29;9.88;;;6.47;;
29538;SDS011;16482;51.046;4.498;2023-07-31T04:15:58;10.65;;;5.80;;
29538;SDS011;16482;51.046;4.498;2023-07-31T04:18:27;9.13;;;6.13;;
29538;SDS011;16482;51.046;4.498;2023-07-31T04:21:02;9.98;;;5.90;;
29538;SDS011;16482;51.046;4.498;2023-07-31T04:23:28;10.25;;;6.70;;
29538;SDS011;16482;51.046;4.498;2023-07-31T04:25:54;10.02;;;5.75;;
29538;SDS011;16482;51.046;4.498;2023-07-31T04:28:19;8.68;;;5.90;;
29538;SDS011;16482;51.046;4.498;2023-07-31T04:30:45;8.13;;;5.63;;
29538;SDS011;16482;51.046;4.498;2023-07-31T04:33:11;10.15;;;6.03;;
29538;SDS011;16482;51.046;4.498;2023-07-31T04:35:37;9.40;;;5.85;;
29538;SDS011;16482;51.046;4.498;2023-07-31T04:38:03;7.43;;;4.80;;
29538;SDS011;16482;51.046;4.498;2023-07-31T04:40:29;9.23;;;5.50;;
29538;SDS011;16482;51.046;4.498;2023-07-31T04:42:55;8.98;;;5.60;;
29538;SDS011;16482;51.046;4.498;2023-07-31T04:45:21;7.88;;;5.70;;
29538;SDS011;16482;51.046;4.498;2023-07-31T04:47:47;8.05;;;5.05;;
29538;SDS011;16482;51.046;4.498;2023-07-31T04:50:13;7.88;;;5.63;;
29538;SDS011;16482;51.046;4.498;2023-07-31T04:52:39;8.38;;;5.18;;
29538;SDS011;16482;51.046;4.498;2023-07-31T04:55:12;7.97;;;5.43;;
29538;SDS011;16482;51.046;4.498;2023-07-31T04:57:38;9.43;;;5.80;;
29538;SDS011;16482;51.046;4.498;2023-07-31T05:00:04;9.43;;;5.57;;
29538;SDS011;16482;51.046;4.498;2023-07-31T05:02:31;7.50;;;5.40;;
29538;SDS011;16482;51.046;4.498;2023-07-31T05:04:57;8.88;;;5.05;;
29538;SDS011;16482;51.046;4.498;2023-07-31T05:07:23;10.75;;;5.53;;
29538;SDS011;16482;51.046;4.498;2023-07-31T05:09:49;9.75;;;5.82;;
29538;SDS011;16482;51.046;4.498;2023-07-31T05:12:14;9.07;;;5.53;;
29538;SDS011;16482;51.046;4.498;2023-07-31T05:14:40;8.70;;;5.47;;
29538;SDS011;16482;51.046;4.498;2023-07-31T05:17:06;8.18;;;5.40;;
29538;SDS011;16482;51.046;4.498;2023-07-31T05:19:32;7.25;;;5.50;;
29538;SDS011;16482;51.046;4.498;2023-07-31T05:21:58;7.07;;;5.38;;
29538;SDS011;16482;51.046;4.498;2023-07-31T05:24:24;9.68;;;5.45;;
29538;SDS011;16482;51.046;4.498;2023-07-31T05:26:52;7.93;;;5.47;;
29538;SDS011;16482;51.046;4.498;2023-07-31T05:29:18;8.20;;;5.07;;
29538;SDS011;16482;51.046;4.498;2023-07-31T05:31:44;10.15;;;5.20;;
29538;SDS011;16482;51.046;4.498;2023-07-31T05:34:10;8.35;;;5.55;;
29538;SDS011;16482;51.046;4.498;2023-07-31T05:36:36;7.18;;;4.85;;
29538;SDS011;16482;51.046;4.498;2023-07-31T05:39:02;7.57;;;5.47;;
29538;SDS011;16482;51.046;4.498;2023-07-31T05:41:32;6.68;;;5.00;;
29538;SDS011;16482;51.046;4.498;2023-07-31T05:43:58;8.35;;;5.15;;
29538;SDS011;16482;51.046;4.498;2023-07-31T05:46:23;7.25;;;4.95;;
29538;SDS011;16482;51.046;4.498;2023-07-31T05:48:49;6.40;;;4.78;;
29538;SDS011;16482;51.046;4.498;2023-07-31T05:51:15;7.10;;;4.90;;
29538;SDS011;16482;51.046;4.498;2023-07-31T05:53:41;7.35;;;5.32;;
29538;SDS011;16482;51.046;4.498;2023-07-31T05:56:07;7.22;;;4.68;;
29538;SDS011;16482;51.046;4.498;2023-07-31T05:58:35;8.93;;;5.28;;
29538;SDS011;16482;51.046;4.498;2023-07-31T06:01:01;8.02;;;4.93;;
29538;SDS011;16482;51.046;4.498;2023-07-31T06:03:32;8.20;;;4.82;;
29538;SDS011;16482;51.046;4.498;2023-07-31T06:06:04;6.78;;;5.20;;
29538;SDS011;16482;51.046;4.498;2023-07-31T06:08:32;6.57;;;5.38;;
29538;SDS011;16482;51.046;4.498;2023-07-31T06:10:58;6.25;;;4.90;;
29538;SDS011;16482;51.046;4.498;2023-07-31T06:13:33;6.55;;;4.80;;
29538;SDS011;16482;51.046;4.498;2023-07-31T06:16:02;7.85;;;5.22;;
29538;SDS011;16482;51.046;4.498;2023-07-31T06:18:37;6.75;;;5.00;;
29538;SDS011;16482;51.046;4.498;2023-07-31T06:21:03;5.65;;;4.53;;
29538;SDS011;16482;51.046;4.498;2023-07-31T06:23:32;5.85;;;4.65;;
29538;SDS011;16482;51.046;4.498;2023-07-31T06:26:02;5.95;;;4.30;;
29538;SDS011;16482;51.046;4.498;2023-07-31T06:28:29;7.13;;;4.57;;
29538;SDS011;16482;51.046;4.498;2023-07-31T06:30:57;6.72;;;4.43;;
29538;SDS011;16482;51.046;4.498;2023-07-31T06:33:24;6.55;;;4.68;;
29538;SDS011;16482;51.046;4.498;2023-07-31T06:35:50;7.22;;;4.47;;
29538;SDS011;16482;51.046;4.498;2023-07-31T06:38:18;7.97;;;4.93;;
29538;SDS011;16482;51.046;4.498;2023-07-31T06:40:47;6.05;;;4.55;;
29538;SDS011;16482;51.046;4.498;2023-07-31T06:43:14;7.38;;;4.80;;
29538;SDS011;16482;51.046;4.498;2023-07-31T06:45:40;6.85;;;4.68;;
29538;SDS011;16482;51.046;4.498;2023-07-31T06:48:05;6.47;;;4.68;;
29538;SDS011;16482;51.046;4.498;2023-07-31T06:50:31;8.32;;;5.18;;
29538;SDS011;16482;51.046;4.498;2023-07-31T06:52:57;7.00;;;4.90;;
29538;SDS011;16482;51.046;4.498;2023-07-31T06:55:23;6.75;;;5.07;;
29538;SDS011;16482;51.046;4.498;2023-07-31T06:57:51;7.18;;;4.90;;
29538;SDS011;16482;51.046;4.498;2023-07-31T07:00:19;6.25;;;4.70;;
29538;SDS011;16482;51.046;4.498;2023-07-31T07:02:46;11.00;;;4.68;;
29538;SDS011;16482;51.046;4.498;2023-07-31T07:05:15;5.95;;;4.55;;
29538;SDS011;16482;51.046;4.498;2023-07-31T07:07:44;6.32;;;4.75;;
29538;SDS011;16482;51.046;4.498;2023-07-31T07:10:13;7.13;;;5.28;;
29538;SDS011;16482;51.046;4.498;2023-07-31T07:12:38;8.95;;;4.80;;
29538;SDS011;16482;51.046;4.498;2023-07-31T07:15:08;8.90;;;5.35;;
29538;SDS011;16482;51.046;4.498;2023-07-31T07:17:34;7.82;;;5.00;;
29538;SDS011;16482;51.046;4.498;2023-07-31T07:20:00;6.88;;;4.72;;
29538;SDS011;16482;51.046;4.498;2023-07-31T07:22:26;8.35;;;5.13;;
29538;SDS011;16482;51.046;4.498;2023-07-31T07:24:52;6.78;;;5.05;;
29538;SDS011;16482;51.046;4.498;2023-07-31T07:27:19;9.25;;;5.07;;
29538;SDS011;16482;51.046;4.498;2023-07-31T07:29:45;7.28;;;5.45;;
29538;SDS011;16482;51.046;4.498;2023-07-31T07:32:11;6.45;;;4.80;;
29538;SDS011;16482;51.046;4.498;2023-07-31T07:34:37;7.43;;;4.93;;
29538;SDS011;16482;51.046;4.498;2023-07-31T07:37:04;7.32;;;5.03;;
29538;SDS011;16482;51.046;4.498;2023-07-31T07:39:30;6.57;;;4.63;;
29538;SDS011;16482;51.046;4.498;2023-07-31T07:41:56;8.50;;;5.38;;
29538;SDS011;16482;51.046;4.498;2023-07-31T07:44:24;8.23;;;4.75;;
29538;SDS011;16482;51.046;4.498;2023-07-31T07:46:50;6.47;;;4.80;;
29538;SDS011;16482;51.046;4.498;2023-07-31T07:49:18;7.05;;;5.25;;
29538;SDS011;16482;51.046;4.498;2023-07-31T07:51:53;9.25;;;4.85;;
29538;SDS011;16482;51.046;4.498;2023-07-31T07:54:19;5.95;;;4.63;;
29538;SDS011;16482;51.046;4.498;2023-07-31T07:56:48;9.75;;;4.78;;
29538;SDS011;16482;51.046;4.498;2023-07-31T07:59:14;7.07;;;4.93;;
29538;SDS011;16482;51.046;4.498;2023-07-31T08:01:40;6.30;;;4.63;;
29538;SDS011;16482;51.046;4.498;2023-07-31T08:04:06;6.47;;;4.97;;
29538;SDS011;16482;51.046;4.498;2023-07-31T08:06:32;7.13;;;4.57;;
29538;SDS011;16482;51.046;4.498;2023-07-31T08:08:58;6.25;;;4.55;;
29538;SDS011;16482;51.046;4.498;2023-07-31T08:11:30;7.13;;;5.05;;
29538;SDS011;16482;51.046;4.498;2023-07-31T08:13:56;7.15;;;4.82;;
29538;SDS011;16482;51.046;4.498;2023-07-31T08:16:22;7.18;;;4.47;;
29538;SDS011;16482;51.046;4.498;2023-07-31T08:18:48;8.38;;;5.28;;
29538;SDS011;16482;51.046;4.498;2023-07-31T08:21:14;7.63;;;4.45;;
29538;SDS011;16482;51.046;4.498;2023-07-31T08:23:40;7.07;;;4.78;;
29538;SDS011;16482;51.046;4.498;2023-07-31T08:26:06;6.68;;;4.72;;
29538;SDS011;16482;51.046;4.498;2023-07-31T08:28:34;6.40;;;4.40;;
29538;SDS011;16482;51.046;4.498;2023-07-31T08:31:04;5.68;;;4.35;;
29538;SDS011;16482;51.046;4.498;2023-07-31T08:33:32;8.82;;;4.93;;
29538;SDS011;16482;51.046;4.498;2023-07-31T08:35:58;8.85;;;4.47;;
29538;SDS011;16482;51.046;4.498;2023-07-31T08:38:25;7.80;;;4.70;;
29538;SDS011;16482;51.046;4.498;2023-07-31T08:40:51;7.25;;;4.78;;
29538;SDS011;16482;51.046;4.498;2023-07-31T08:43:17;12.38;;;4.15;;
29538;SDS011;16482;51.046;4.498;2023-07-31T08:45:45;7.10;;;4.60;;
29538;SDS011;16482;51.046;4.498;2023-07-31T08:48:12;6.60;;;4.45;;
29538;SDS011;16482;51.046;4.498;2023-07-31T08:50:41;8.15;;;5.28;;
29538;SDS011;16482;51.046;4.498;2023-07-31T08:53:07;7.07;;;4.47;;
29538;SDS011;16482;51.046;4.498;2023-07-31T08:55:33;8.57;;;4.20;;
29538;SDS011;16482;51.046;4.498;2023-07-31T08:58:00;9.73;;;4.32;;
29538;SDS011;16482;51.046;4.498;2023-07-31T09:00:30;8.35;;;4.90;;
29538;SDS011;16482;51.046;4.498;2023-07-31T09:03:01;11.05;;;4.90;;
29538;SDS011;16482;51.046;4.498;2023-07-31T09:05:29;10.30;;;4.80;;
29538;SDS011;16482;51.046;4.498;2023-07-31T09:07:56;7.20;;;4.80;;
29538;SDS011;16482;51.046;4.498;2023-07-31T09:10:23;11.52;;;4.88;;
29538;SDS011;16482;51.046;4.498;2023-07-31T09:12:50;7.28;;;4.60;;
29538;SDS011;16482;51.046;4.498;2023-07-31T09:15:17;8.77;;;4.55;;
29538;SDS011;16482;51.046;4.498;2023-07-31T09:17:44;6.55;;;4.00;;
29538;SDS011;16482;51.046;4.498;2023-07-31T09:20:17;7.63;;;4.00;;
29538;SDS011;16482;51.046;4.498;2023-07-31T09:22:44;7.53;;;4.40;;
29538;SDS011;16482;51.046;4.498;2023-07-31T09:25:15;9.57;;;4.32;;
29538;SDS011;16482;51.046;4.498;2023-07-31T09:27:51;7.30;;;4.38;;
29538;SDS011;16482;51.046;4.498;2023-07-31T09:30:23;9.05;;;4.50;;
29538;SDS011;16482;51.046;4.498;2023-07-31T09:32:50;6.90;;;4.47;;
29538;SDS011;16482;51.046;4.498;2023-07-31T09:35:28;6.50;;;4.30;;
29538;SDS011;16482;51.046;4.498;2023-07-31T09:38:00;10.70;;;4.90;;
29538;SDS011;16482;51.046;4.498;2023-07-31T09:40:32;8.98;;;4.72;;
29538;SDS011;16482;51.046;4.498;2023-07-31T09:43:00;8.07;;;4.53;;
29538;SDS011;16482;51.046;4.498;2023-07-31T09:45:27;8.20;;;4.70;;
29538;SDS011;16482;51.046;4.498;2023-07-31T09:47:54;9.05;;;4.60;;
29538;SDS011;16482;51.046;4.498;2023-07-31T09:50:21;7.63;;;4.20;;
29538;SDS011;16482;51.046;4.498;2023-07-31T09:52:49;6.93;;;4.40;;
29538;SDS011;16482;51.046;4.498;2023-07-31T09:55:17;8.05;;;4.25;;
29538;SDS011;16482;51.046;4.498;2023-07-31T09:57:45;6.15;;;4.25;;
29538;SDS011;16482;51.046;4.498;2023-07-31T10:00:13;6.53;;;4.50;;
29538;SDS011;16482;51.046;4.498;2023-07-31T10:02:45;7.38;;;4.78;;
29538;SDS011;16482;51.046;4.498;2023-07-31T10:05:13;7.70;;;4.50;;
29538;SDS011;16482;51.046;4.498;2023-07-31T10:07:41;5.53;;;4.30;;
29538;SDS011;16482;51.046;4.498;2023-07-31T10:10:13;6.95;;;4.60;;
29538;SDS011;16482;51.046;4.498;2023-07-31T10:12:43;6.43;;;4.65;;
29538;SDS011;16482;51.046;4.498;2023-07-31T10:15:14;8.80;;;4.82;;
29538;SDS011;16482;51.046;4.498;2023-07-31T10:17:40;7.70;;;4.50;;
29538;SDS011;16482;51.046;4.498;2023-07-31T10:20:07;7.22;;;4.00;;
29538;SDS011;16482;51.046;4.498;2023-07-31T10:22:36;5.38;;;3.95;;
29538;SDS011;16482;51.046;4.498;2023-07-31T10:25:02;5.22;;;4.38;;
29538;SDS011;16482;51.046;4.498;2023-07-31T10:27:28;6.65;;;4.20;;
29538;SDS011;16482;51.046;4.498;2023-07-31T10:29:54;9.35;;;3.97;;
29538;SDS011;16482;51.046;4.498;2023-07-31T10:32:22;6.28;;;4.07;;
29538;SDS011;16482;51.046;4.498;2023-07-31T10:34:50;6.32;;;4.30;;
29538;SDS011;16482;51.046;4.498;2023-07-31T10:37:24;7.00;;;4.22;;
29538;SDS011;16482;51.046;4.498;2023-07-31T10:42:38;6.13;;;4.18;;
29538;SDS011;16482;51.046;4.498;2023-07-31T10:45:14;6.28;;;4.30;;
29538;SDS011;16482;51.046;4.498;2023-07-31T10:48:05;6.85;;;4.38;;
29538;SDS011;16482;51.046;4.498;2023-07-31T10:50:36;8.07;;;4.55;;
29538;SDS011;16482;51.046;4.498;2023-07-31T10:53:03;7.78;;;4.75;;
29538;SDS011;16482;51.046;4.498;2023-07-31T10:58:11;8.93;;;4.47;;
29538;SDS011;16482;51.046;4.498;2023-07-31T11:00:39;7.38;;;4.90;;
29538;SDS011;16482;51.046;4.498;2023-07-31T11:03:16;6.95;;;4.15;;
29538;SDS011;16482;51.046;4.498;2023-07-31T11:08:24;8.70;;;4.78;;
29538;SDS011;16482;51.046;4.498;2023-07-31T11:11:05;7.15;;;4.82;;
29538;SDS011;16482;51.046;4.498;2023-07-31T11:16:18;5.25;;;4.13;;
29538;SDS011;16482;51.046;4.498;2023-07-31T11:18:46;12.18;;;4.85;;
29538;SDS011;16482;51.046;4.498;2023-07-31T11:21:14;6.45;;;4.38;;
29538;SDS011;16482;51.046;4.498;2023-07-31T11:23:41;6.28;;;4.50;;
29538;SDS011;16482;51.046;4.498;2023-07-31T11:26:11;6.88;;;4.55;;
29538;SDS011;16482;51.046;4.498;2023-07-31T11:28:37;8.68;;;5.35;;
29538;SDS011;16482;51.046;4.498;2023-07-31T11:31:03;9.32;;;4.80;;
29538;SDS011;16482;51.046;4.498;2023-07-31T11:33:30;7.93;;;4.63;;
29538;SDS011;16482;51.046;4.498;2023-07-31T11:35:58;10.02;;;5.18;;
29538;SDS011;16482;51.046;4.498;2023-07-31T11:38:25;9.88;;;5.50;;
29538;SDS011;16482;51.046;4.498;2023-07-31T11:40:59;7.78;;;5.20;;
29538;SDS011;16482;51.046;4.498;2023-07-31T11:43:30;8.68;;;5.10;;
29538;SDS011;16482;51.046;4.498;2023-07-31T11:45:57;7.78;;;5.05;;
29538;SDS011;16482;51.046;4.498;2023-07-31T11:48:33;9.68;;;5.25;;
29538;SDS011;16482;51.046;4.498;2023-07-31T11:53:31;8.63;;;5.72;;
29538;SDS011;16482;51.046;4.498;2023-07-31T11:56:14;9.77;;;5.80;;
29538;SDS011;16482;51.046;4.498;2023-07-31T11:58:43;8.20;;;5.47;;
29538;SDS011;16482;51.046;4.498;2023-07-31T12:01:14;8.02;;;5.55;;
29538;SDS011;16482;51.046;4.498;2023-07-31T12:03:42;8.02;;;5.30;;
29538;SDS011;16482;51.046;4.498;2023-07-31T12:06:09;9.43;;;6.40;;
29538;SDS011;16482;51.046;4.498;2023-07-31T12:08:36;8.90;;;5.72;;
29538;SDS011;16482;51.046;4.498;2023-07-31T12:11:05;12.10;;;6.97;;
29538;SDS011;16482;51.046;4.498;2023-07-31T12:13:36;9.77;;;6.20;;
29538;SDS011;16482;51.046;4.498;2023-07-31T12:16:04;8.65;;;6.00;;
29538;SDS011;16482;51.046;4.498;2023-07-31T12:18:34;8.60;;;6.00;;
29538;SDS011;16482;51.046;4.498;2023-07-31T12:21:05;10.13;;;5.88;;
29538;SDS011;16482;51.046;4.498;2023-07-31T12:23:35;10.18;;;6.22;;
29538;SDS011;16482;51.046;4.498;2023-07-31T12:26:12;9.07;;;5.72;;
29538;SDS011;16482;51.046;4.498;2023-07-31T12:28:49;11.48;;;6.38;;
29538;SDS011;16482;51.046;4.498;2023-07-31T12:31:20;9.88;;;6.00;;
29538;SDS011;16482;51.046;4.498;2023-07-31T12:33:48;9.00;;;5.90;;
29538;SDS011;16482;51.046;4.498;2023-07-31T12:36:17;8.88;;;6.38;;
29538;SDS011;16482;51.046;4.498;2023-07-31T12:38:46;9.73;;;5.38;;
29538;SDS011;16482;51.046;4.498;2023-07-31T12:41:12;8.95;;;5.63;;
29538;SDS011;16482;51.046;4.498;2023-07-31T12:43:39;9.32;;;5.80;;
29538;SDS011;16482;51.046;4.498;2023-07-31T12:46:06;9.45;;;6.40;;
29538;SDS011;16482;51.046;4.498;2023-07-31T12:48:33;8.57;;;5.43;;
29538;SDS011;16482;51.046;4.498;2023-07-31T12:50:59;8.45;;;5.93;;
29538;SDS011;16482;51.046;4.498;2023-07-31T12:53:26;9.02;;;5.97;;
29538;SDS011;16482;51.046;4.498;2023-07-31T12:55:52;7.45;;;5.63;;
29538;SDS011;16482;51.046;4.498;2023-07-31T12:58:18;9.77;;;6.40;;
29538;SDS011;16482;51.046;4.498;2023-07-31T13:00:43;9.05;;;5.80;;
29538;SDS011;16482;51.046;4.498;2023-07-31T13:03:09;8.13;;;5.75;;
29538;SDS011;16482;51.046;4.498;2023-07-31T13:05:36;10.32;;;5.90;;
29538;SDS011;16482;51.046;4.498;2023-07-31T13:08:02;9.43;;;6.43;;
29538;SDS011;16482;51.046;4.498;2023-07-31T13:10:28;9.13;;;6.07;;
29538;SDS011;16482;51.046;4.498;2023-07-31T13:12:55;12.07;;;6.55;;
29538;SDS011;16482;51.046;4.498;2023-07-31T13:15:21;9.77;;;6.32;;
29538;SDS011;16482;51.046;4.498;2023-07-31T13:17:46;10.38;;;6.43;;
29538;SDS011;16482;51.046;4.498;2023-07-31T13:20:15;10.60;;;6.35;;
29538;SDS011;16482;51.046;4.498;2023-07-31T13:22:41;11.20;;;6.13;;
29538;SDS011;16482;51.046;4.498;2023-07-31T13:25:07;10.05;;;5.95;;
29538;SDS011;16482;51.046;4.498;2023-07-31T13:27:35;11.18;;;6.32;;
29538;SDS011;16482;51.046;4.498;2023-07-31T13:30:01;12.63;;;6.50;;
29538;SDS011;16482;51.046;4.498;2023-07-31T13:32:27;10.98;;;6.63;;
29538;SDS011;16482;51.046;4.498;2023-07-31T13:34:53;8.50;;;6.05;;
29538;SDS011;16482;51.046;4.498;2023-07-31T13:37:19;7.22;;;5.53;;
29538;SDS011;16482;51.046;4.498;2023-07-31T13:39:45;8.32;;;5.50;;
29538;SDS011;16482;51.046;4.498;2023-07-31T13:42:11;7.32;;;5.38;;
29538;SDS011;16482;51.046;4.498;2023-07-31T13:44:41;9.07;;;5.60;;
29538;SDS011;16482;51.046;4.498;2023-07-31T13:47:07;7.18;;;5.50;;
29538;SDS011;16482;51.046;4.498;2023-07-31T13:49:34;7.88;;;5.20;;
29538;SDS011;16482;51.046;4.498;2023-07-31T13:52:01;8.05;;;5.28;;
29538;SDS011;16482;51.046;4.498;2023-07-31T13:54:27;6.50;;;4.88;;
29538;SDS011;16482;51.046;4.498;2023-07-31T13:56:53;8.45;;;5.10;;
29538;SDS011;16482;51.046;4.498;2023-07-31T13:59:19;7.45;;;5.00;;
29538;SDS011;16482;51.046;4.498;2023-07-31T14:01:46;15.65;;;5.38;;
29538;SDS011;16482;51.046;4.498;2023-07-31T14:04:12;6.15;;;4.97;;
29538;SDS011;16482;51.046;4.498;2023-07-31T14:06:38;7.85;;;4.93;;
29538;SDS011;16482;51.046;4.498;2023-07-31T14:09:04;8.27;;;4.88;;
29538;SDS011;16482;51.046;4.498;2023-07-31T14:11:31;6.25;;;4.22;;
29538;SDS011;16482;51.046;4.498;2023-07-31T14:13:57;8.95;;;5.40;;
29538;SDS011;16482;51.046;4.498;2023-07-31T14:16:23;7.20;;;4.95;;
29538;SDS011;16482;51.046;4.498;2023-07-31T14:18:49;6.35;;;4.57;;
29538;SDS011;16482;51.046;4.498;2023-07-31T14:21:15;7.55;;;4.72;;
29538;SDS011;16482;51.046;4.498;2023-07-31T14:23:44;5.80;;;4.15;;
29538;SDS011;16482;51.046;4.498;2023-07-31T14:26:10;6.18;;;3.95;;
29538;SDS011;16482;51.046;4.498;2023-07-31T14:28:36;6.75;;;4.55;;
29538;SDS011;16482;51.046;4.498;2023-07-31T14:31:02;8.35;;;4.28;;
29538;SDS011;16482;51.046;4.498;2023-07-31T14:33:30;6.57;;;4.00;;
29538;SDS011;16482;51.046;4.498;2023-07-31T14:35:56;6.28;;;4.43;;
29538;SDS011;16482;51.046;4.498;2023-07-31T14:38:22;5.60;;;3.90;;
29538;SDS011;16482;51.046;4.498;2023-07-31T14:40:48;5.97;;;3.90;;
29538;SDS011;16482;51.046;4.498;2023-07-31T14:43:14;5.20;;;4.07;;
29538;SDS011;16482;51.046;4.498;2023-07-31T14:45:40;5.70;;;4.10;;
29538;SDS011;16482;51.046;4.498;2023-07-31T14:48:06;6.32;;;4.10;;
29538;SDS011;16482;51.046;4.498;2023-07-31T14:50:32;6.30;;;3.70;;
29538;SDS011;16482;51.046;4.498;2023-07-31T14:52:58;5.15;;;3.72;;
29538;SDS011;16482;51.046;4.498;2023-07-31T14:55:25;5.05;;;3.72;;
29538;SDS011;16482;51.046;4.498;2023-07-31T14:57:51;5.32;;;3.60;;
29538;SDS011;16482;51.046;4.498;2023-07-31T15:00:17;5.82;;;3.78;;
29538;SDS011;16482;51.046;4.498;2023-07-31T15:02:45;4.88;;;3.53;;
29538;SDS011;16482;51.046;4.498;2023-07-31T15:05:11;4.82;;;3.72;;